createdAt,value
2022-08-27T00:02:09.907Z,0.90
2022-08-27T00:04:41.190Z,1.00
2022-08-27T00:07:10.639Z,0.90
2022-08-27T00:09:39.592Z,0.87
2022-08-27T00:12:08.590Z,0.70
2022-08-27T00:14:38.722Z,0.80
2022-08-27T00:17:07.996Z,1.73
2022-08-27T00:19:41.531Z,1.33
2022-08-27T00:22:17.017Z,1.43
2022-08-27T00:24:49.143Z,1.00
2022-08-27T00:27:17.871Z,0.80
2022-08-27T00:29:46.223Z,0.90
2022-08-27T00:32:14.806Z,0.97
2022-08-27T00:34:43.105Z,0.70
2022-08-27T00:37:12.831Z,0.70
2022-08-27T00:39:41.150Z,0.80
2022-08-27T00:42:15.013Z,1.20
2022-08-27T00:44:48.866Z,0.80
2022-08-27T00:47:23.704Z,0.90
2022-08-27T00:49:55.276Z,0.53
2022-08-27T00:52:30.421Z,0.90
2022-08-27T00:55:03.089Z,0.70
2022-08-27T00:57:31.960Z,0.97
2022-08-27T01:00:00.610Z,0.80
2022-08-27T01:02:30.817Z,0.87
2022-08-27T01:05:02.797Z,1.10
2022-08-27T01:07:37.497Z,0.90
2022-08-27T01:10:08.781Z,0.70
2022-08-27T01:12:37.766Z,0.83
2022-08-27T01:15:12.011Z,1.00
2022-08-27T01:17:43.578Z,0.60
2022-08-27T01:20:17.641Z,0.90
2022-08-27T01:22:57.509Z,0.90
2022-08-27T01:25:28.141Z,0.80
2022-08-27T01:27:58.762Z,1.00
2022-08-27T01:30:27.762Z,0.90
2022-08-27T01:32:56.071Z,0.80
2022-08-27T01:35:24.871Z,0.73
2022-08-27T01:37:57.229Z,0.90
2022-08-27T01:40:41.673Z,0.60
2022-08-27T01:43:10.422Z,0.90
2022-08-27T01:45:41.831Z,0.90
2022-08-27T01:48:10.214Z,0.70
2022-08-27T01:50:40.475Z,0.60
2022-08-27T01:53:11.075Z,0.70
2022-08-27T01:55:41.990Z,0.60
2022-08-27T01:58:16.158Z,0.67
2022-08-27T02:00:47.330Z,0.80
2022-08-27T02:03:20.704Z,0.90
2022-08-27T02:05:49.847Z,0.70
2022-08-27T02:08:19.250Z,1.07
2022-08-27T02:10:50.754Z,1.00
2022-08-27T02:13:20.138Z,0.70
2022-08-27T02:15:48.629Z,0.80
2022-08-27T02:18:17.094Z,0.90
2022-08-27T02:20:47.604Z,0.73
2022-08-27T02:23:16.660Z,0.90
2022-08-27T02:25:47.357Z,1.50
2022-08-27T02:28:17.071Z,0.70
2022-08-27T02:30:45.746Z,1.27
2022-08-27T02:33:14.773Z,0.90
2022-08-27T02:35:44.403Z,0.70
2022-08-27T02:38:18.726Z,0.90
2022-08-27T02:40:51.955Z,0.93
2022-08-27T02:43:25.287Z,0.83
2022-08-27T02:45:54.215Z,0.80
2022-08-27T02:48:23.238Z,1.07
2022-08-27T02:50:52.138Z,0.97
2022-08-27T02:53:20.391Z,1.10
2022-08-27T02:55:49.304Z,0.70
2022-08-27T02:58:17.606Z,0.80
2022-08-27T03:00:47.277Z,0.80
2022-08-27T03:03:15.537Z,0.80
2022-08-27T03:05:44.216Z,0.60
2022-08-27T03:08:12.764Z,1.00
2022-08-27T03:10:42.048Z,0.97
2022-08-27T03:13:10.341Z,0.80
2022-08-27T03:15:38.845Z,1.10
2022-08-27T03:18:19.804Z,1.27
2022-08-27T03:20:50.299Z,0.80
2022-08-27T03:23:22.151Z,0.80
2022-08-27T03:25:52.603Z,1.07
2022-08-27T03:28:22.638Z,0.90
2022-08-27T03:30:53.516Z,0.90
2022-08-27T03:33:23.710Z,0.80
2022-08-27T03:35:52.418Z,1.20
2022-08-27T03:38:21.293Z,1.13
2022-08-27T03:40:49.954Z,1.00
2022-08-27T03:43:20.364Z,0.63
2022-08-27T03:46:00.582Z,0.73
2022-08-27T03:48:32.662Z,0.80
2022-08-27T03:51:01.176Z,0.60
2022-08-27T03:53:29.565Z,0.80
2022-08-27T03:55:57.927Z,0.90
2022-08-27T03:58:26.164Z,0.80
2022-08-27T04:00:54.398Z,0.80
2022-08-27T04:03:23.844Z,0.80
2022-08-27T04:05:55.307Z,0.70
2022-08-27T04:08:24.199Z,1.03
2022-08-27T04:10:53.752Z,0.80
2022-08-27T04:13:22.925Z,0.80
2022-08-27T04:15:53.213Z,0.90
2022-08-27T04:18:21.777Z,0.87
2022-08-27T04:20:52.466Z,0.70
2022-08-27T04:23:22.582Z,1.10
2022-08-27T04:25:51.401Z,1.10
2022-08-27T04:28:19.638Z,1.17
2022-08-27T04:30:48.564Z,0.90
2022-08-27T04:33:17.036Z,1.33
2022-08-27T04:35:45.548Z,1.20
2022-08-27T04:38:13.891Z,0.90
2022-08-27T04:41:00.783Z,1.30
2022-08-27T04:43:29.391Z,0.80
2022-08-27T04:45:58.001Z,1.40
2022-08-27T04:48:27.253Z,1.33
2022-08-27T04:50:55.712Z,1.00
2022-08-27T04:53:24.072Z,1.00
2022-08-27T04:55:56.373Z,0.77
2022-08-27T04:58:26.493Z,0.87
2022-08-27T05:00:59.364Z,1.10
2022-08-27T05:03:28.458Z,1.10
2022-08-27T05:06:02.756Z,0.80
2022-08-27T05:08:31.371Z,0.90
2022-08-27T05:11:01.954Z,0.70
2022-08-27T05:13:30.989Z,0.93
2022-08-27T05:16:01.501Z,0.70
2022-08-27T05:18:32.527Z,0.87
2022-08-27T05:21:04.065Z,0.80
2022-08-27T05:23:32.626Z,0.70
2022-08-27T05:26:08.975Z,0.90
2022-08-27T05:28:42.053Z,1.20
2022-08-27T05:31:16.970Z,0.90
2022-08-27T05:33:45.549Z,1.20
2022-08-27T05:36:18.361Z,0.90
2022-08-27T05:38:46.621Z,0.90
2022-08-27T05:41:17.733Z,1.03
2022-08-27T05:43:50.110Z,0.87
2022-08-27T05:46:22.838Z,0.90
2022-08-27T05:48:52.776Z,0.80
2022-08-27T05:51:25.803Z,0.87
2022-08-27T05:53:56.739Z,1.10
2022-08-27T05:56:28.458Z,1.23
2022-08-27T05:59:14.212Z,1.10
2022-08-27T06:01:46.194Z,0.90
2022-08-27T06:04:17.760Z,1.00
2022-08-27T06:06:47.289Z,1.43
2022-08-27T06:09:18.795Z,2.00
2022-08-27T06:11:48.743Z,1.00
2022-08-27T06:14:17.370Z,1.23
2022-08-27T06:16:45.651Z,1.00
2022-08-27T06:19:14.210Z,0.83
2022-08-27T06:21:43.148Z,1.10
2022-08-27T06:24:13.365Z,1.10
2022-08-27T06:26:44.218Z,1.00
2022-08-27T06:29:14.932Z,1.40
2022-08-27T06:31:43.659Z,0.90
2022-08-27T06:34:12.642Z,1.50
2022-08-27T06:36:43.021Z,1.10
2022-08-27T06:39:15.588Z,1.10
2022-08-27T06:41:45.912Z,1.00
2022-08-27T06:44:15.707Z,1.63
2022-08-27T06:46:45.353Z,0.97
2022-08-27T06:49:14.431Z,1.20
2022-08-27T06:51:46.107Z,1.40
2022-08-27T06:54:16.991Z,1.13
2022-08-27T06:56:45.663Z,1.10
2022-08-27T06:59:18.714Z,1.40
2022-08-27T07:01:49.416Z,1.33
2022-08-27T07:04:21.737Z,1.27
2022-08-27T07:06:50.579Z,1.13
2022-08-27T07:09:20.697Z,1.20
2022-08-27T07:11:49.152Z,1.63
2022-08-27T07:14:19.106Z,1.50
2022-08-27T07:16:48.217Z,1.17
2022-08-27T07:19:18.450Z,2.00
2022-08-27T07:21:46.694Z,1.57
2022-08-27T07:24:15.430Z,1.50
2022-08-27T07:26:45.103Z,1.20
2022-08-27T07:29:15.819Z,1.50
2022-08-27T07:31:46.114Z,1.30
2022-08-27T07:34:14.417Z,1.40
2022-08-27T07:36:42.679Z,1.23
2022-08-27T07:39:10.958Z,1.67
2022-08-27T07:41:59.465Z,1.30
2022-08-27T07:44:31.076Z,1.23
2022-08-27T07:47:04.687Z,1.50
2022-08-27T07:49:35.149Z,1.97
2022-08-27T07:52:03.690Z,1.50
2022-08-27T07:54:32.051Z,2.10
2022-08-27T07:57:00.452Z,1.67
2022-08-27T07:59:29.147Z,1.53
2022-08-27T08:01:58.229Z,1.73
2022-08-27T08:04:28.058Z,1.30
2022-08-27T08:06:56.766Z,1.60
2022-08-27T08:09:25.850Z,1.63
2022-08-27T08:11:54.266Z,1.70
2022-08-27T08:14:22.821Z,1.90
2022-08-27T08:16:51.579Z,1.80
2022-08-27T08:19:20.066Z,1.67
2022-08-27T08:21:52.982Z,2.07
2022-08-27T08:24:27.967Z,2.03
2022-08-27T08:26:56.511Z,1.57
2022-08-27T08:29:25.094Z,1.53
2022-08-27T08:31:53.615Z,1.43
2022-08-27T08:34:22.025Z,1.53
2022-08-27T08:36:55.122Z,1.77
2022-08-27T08:39:24.004Z,1.60
2022-08-27T08:41:57.008Z,2.00
2022-08-27T08:44:33.479Z,1.67
2022-08-27T08:47:08.635Z,1.80
2022-08-27T08:49:52.832Z,1.57
2022-08-27T08:52:41.456Z,1.33
2022-08-27T08:55:28.072Z,1.60
2022-08-27T08:58:09.979Z,1.40
2022-08-27T09:00:40.635Z,1.70
2022-08-27T09:03:12.824Z,1.57
2022-08-27T09:05:47.804Z,1.30
2022-08-27T09:08:41.614Z,1.80
2022-08-27T09:11:19.270Z,1.30
2022-08-27T09:13:52.016Z,1.23
2022-08-27T09:16:20.751Z,1.63
2022-08-27T09:18:51.322Z,1.23
2022-08-27T09:21:33.373Z,1.47
2022-08-27T09:24:09.698Z,1.00
2022-08-27T09:26:41.766Z,2.30
2022-08-27T09:29:20.277Z,1.60
2022-08-27T09:31:55.975Z,1.30
2022-08-27T09:34:26.121Z,1.30
2022-08-27T09:37:04.518Z,1.60
2022-08-27T09:39:48.737Z,1.60
2022-08-27T09:42:35.874Z,1.43
2022-08-27T09:45:10.052Z,1.43
2022-08-27T09:47:46.098Z,1.37
2022-08-27T09:50:18.656Z,1.40
2022-08-27T09:52:55.490Z,2.63
2022-08-27T09:55:30.615Z,1.70
2022-08-27T09:58:00.259Z,2.07
2022-08-27T10:00:37.880Z,2.03
2022-08-27T10:03:08.439Z,2.20
2022-08-27T10:05:40.866Z,2.20
2022-08-27T10:08:21.785Z,2.40
2022-08-27T10:10:56.908Z,1.90
2022-08-27T10:13:31.695Z,2.93
2022-08-27T10:16:33.770Z,3.70
2022-08-27T10:19:16.943Z,3.50
2022-08-27T10:21:53.707Z,3.97
2022-08-27T10:24:31.413Z,3.40
2022-08-27T10:27:11.756Z,4.00
2022-08-27T10:29:47.338Z,4.17
2022-08-27T10:32:31.291Z,4.13
2022-08-27T10:35:08.785Z,3.90
2022-08-27T10:37:52.322Z,4.20
2022-08-27T10:40:28.278Z,4.03
2022-08-27T10:43:11.088Z,3.53
2022-08-27T10:45:47.361Z,3.97
2022-08-27T10:48:25.789Z,3.40
2022-08-27T10:50:58.472Z,2.70
2022-08-27T10:53:37.060Z,2.20
2022-08-27T10:56:14.586Z,2.90
2022-08-27T10:58:57.570Z,3.90
2022-08-27T11:01:34.331Z,4.50
2022-08-27T11:04:08.425Z,4.47
2022-08-27T11:06:42.767Z,4.27
2022-08-27T11:09:18.452Z,3.33
2022-08-27T11:12:13.186Z,2.50
2022-08-27T11:14:49.074Z,2.87
2022-08-27T11:17:26.093Z,2.17
2022-08-27T11:20:07.018Z,2.30
2022-08-27T11:22:39.956Z,2.30
2022-08-27T11:25:16.827Z,2.07
2022-08-27T11:27:49.251Z,2.07
2022-08-27T11:30:27.287Z,1.97
2022-08-27T11:33:02.734Z,2.00
2022-08-27T11:35:42.618Z,2.23
2022-08-27T11:38:34.410Z,1.90
2022-08-27T11:41:27.799Z,1.97
2022-08-27T11:44:02.999Z,2.17
2022-08-27T11:46:50.822Z,2.17
2022-08-27T11:49:31.887Z,1.50
2022-08-27T11:52:04.591Z,1.80
2022-08-27T11:54:45.711Z,2.10
2022-08-27T11:57:27.691Z,2.00
2022-08-27T11:59:56.066Z,1.93
2022-08-27T12:02:29.292Z,2.03
2022-08-27T12:05:09.968Z,2.17
2022-08-27T12:07:40.917Z,2.20
2022-08-27T12:10:30.643Z,2.00
2022-08-27T12:13:11.553Z,1.93
2022-08-27T12:15:58.480Z,2.53
2022-08-27T12:19:04.716Z,1.90
2022-08-27T12:21:50.732Z,2.00
2022-08-27T12:24:44.156Z,2.50
2022-08-27T12:27:34.685Z,2.33
2022-08-27T12:30:08.142Z,2.37
2022-08-27T12:32:41.148Z,2.67
2022-08-27T12:35:15.782Z,3.03
2022-08-27T12:37:48.270Z,2.40
2022-08-27T12:40:24.461Z,2.33
2022-08-27T12:42:54.330Z,2.23
2022-08-27T12:45:25.626Z,2.47
2022-08-27T12:47:57.143Z,2.57
2022-08-27T12:50:30.584Z,2.87
2022-08-27T12:53:21.120Z,2.70
2022-08-27T12:56:01.347Z,2.40
2022-08-27T12:58:42.978Z,2.87
2022-08-27T13:01:28.534Z,2.50
2022-08-27T13:03:58.105Z,2.30
2022-08-27T13:06:33.334Z,2.73
2022-08-27T13:09:03.817Z,2.33
2022-08-27T13:11:34.721Z,3.27
2022-08-27T13:14:09.272Z,2.53
2022-08-27T13:16:39.919Z,3.00
2022-08-27T13:19:09.563Z,2.73
2022-08-27T13:21:39.285Z,2.43
2022-08-27T13:24:08.674Z,2.03
2022-08-27T13:26:39.258Z,2.50
2022-08-27T13:29:09.119Z,2.53
2022-08-27T13:31:38.069Z,3.10
2022-08-27T13:34:07.925Z,2.73
2022-08-27T13:36:52.540Z,2.30
2022-08-27T13:39:21.193Z,2.33
2022-08-27T13:41:50.627Z,2.60
2022-08-27T13:44:25.188Z,2.77
2022-08-27T13:47:00.181Z,2.50
2022-08-27T13:49:31.307Z,3.13
2022-08-27T13:52:05.036Z,2.63
2022-08-27T13:54:34.137Z,2.50
2022-08-27T13:57:08.669Z,2.57
2022-08-27T13:59:42.886Z,3.30
2022-08-27T14:02:25.300Z,2.40
2022-08-27T14:05:11.510Z,7.30
2022-08-27T14:07:47.568Z,4.87
2022-08-27T14:10:32.871Z,3.53
2022-08-27T14:13:03.186Z,3.47
2022-08-27T14:15:35.075Z,2.60
2022-08-27T14:18:05.423Z,2.73
2022-08-27T14:20:34.711Z,2.20
2022-08-27T14:23:04.541Z,2.70
2022-08-27T14:25:34.602Z,2.87
2022-08-27T14:28:03.009Z,3.63
2022-08-27T14:30:32.638Z,2.60
2022-08-27T14:33:02.503Z,3.37
2022-08-27T14:35:33.584Z,2.93
2022-08-27T14:38:08.545Z,2.50
2022-08-27T14:40:36.957Z,2.97
2022-08-27T14:43:05.282Z,3.10
2022-08-27T14:45:35.319Z,2.40
2022-08-27T14:48:06.324Z,2.63
2022-08-27T14:50:34.986Z,2.20
2022-08-27T14:53:04.987Z,2.40
2022-08-27T14:55:33.441Z,2.90
2022-08-27T14:58:02.796Z,2.90
2022-08-27T15:00:31.420Z,2.80
2022-08-27T15:02:59.953Z,2.63
2022-08-27T15:05:28.309Z,2.60
2022-08-27T15:07:58.151Z,2.33
2022-08-27T15:10:28.329Z,2.77
2022-08-27T15:12:56.898Z,2.30
2022-08-27T15:15:25.808Z,2.60
2022-08-27T15:17:54.083Z,2.30
2022-08-27T15:20:22.632Z,2.47
2022-08-27T15:22:53.191Z,2.47
2022-08-27T15:25:22.535Z,2.07
2022-08-27T15:27:52.642Z,2.33
2022-08-27T15:30:27.298Z,2.50
2022-08-27T15:32:56.337Z,2.53
2022-08-27T15:35:27.273Z,3.10
2022-08-27T15:37:57.410Z,2.10
2022-08-27T15:40:27.669Z,2.53
2022-08-27T15:43:02.173Z,1.87
2022-08-27T15:45:32.007Z,2.20
2022-08-27T15:48:01.165Z,2.50
2022-08-27T15:50:31.485Z,2.27
2022-08-27T15:53:03.535Z,2.77
2022-08-27T15:55:35.200Z,4.63
2022-08-27T15:58:05.538Z,2.13
2022-08-27T16:00:35.371Z,2.53
2022-08-27T16:03:06.382Z,1.90
2022-08-27T16:05:37.924Z,1.90
2022-08-27T16:08:07.588Z,1.70
2022-08-27T16:10:36.066Z,1.70
2022-08-27T16:13:06.150Z,2.00
2022-08-27T16:15:36.353Z,1.97
2022-08-27T16:18:05.507Z,1.47
2022-08-27T16:20:33.827Z,2.17
2022-08-27T16:23:02.397Z,1.70
2022-08-27T16:25:30.688Z,2.10
2022-08-27T16:28:01.046Z,1.83
2022-08-27T16:30:31.258Z,1.73
2022-08-27T16:32:59.651Z,1.73
2022-08-27T16:35:28.309Z,2.33
2022-08-27T16:37:56.549Z,1.87
2022-08-27T16:40:26.056Z,1.97
2022-08-27T16:42:54.550Z,2.00
2022-08-27T16:45:24.335Z,7.00
2022-08-27T16:48:12.703Z,6.43
2022-08-27T16:50:42.255Z,3.77
2022-08-27T16:53:13.297Z,3.07
2022-08-27T16:55:42.511Z,2.67
2022-08-27T16:58:21.863Z,2.37
2022-08-27T17:00:52.951Z,1.60
2022-08-27T17:03:24.872Z,2.00
2022-08-27T17:05:54.051Z,2.57
2022-08-27T17:08:26.748Z,2.63
2022-08-27T17:10:56.506Z,2.63
2022-08-27T17:13:28.173Z,2.33
2022-08-27T17:15:57.605Z,2.30
2022-08-27T17:18:28.349Z,1.90
2022-08-27T17:20:58.206Z,2.10
2022-08-27T17:23:33.271Z,1.80
2022-08-27T17:26:01.669Z,1.90
2022-08-27T17:28:29.991Z,2.50
2022-08-27T17:30:59.207Z,2.63
2022-08-27T17:33:31.919Z,2.00
2022-08-27T17:36:00.387Z,4.70
2022-08-27T17:38:30.467Z,5.10
2022-08-27T17:40:59.232Z,5.57
2022-08-27T17:43:27.666Z,4.70
2022-08-27T17:45:56.719Z,4.73
2022-08-27T17:48:26.690Z,4.90
2022-08-27T17:50:56.796Z,3.53
2022-08-27T17:53:25.156Z,2.37
2022-08-27T17:55:53.463Z,2.10
2022-08-27T17:58:21.875Z,2.70
2022-08-27T18:00:51.201Z,3.90
2022-08-27T18:03:20.988Z,3.47
2022-08-27T18:05:50.229Z,2.80
2022-08-27T18:08:20.568Z,2.53
2022-08-27T18:10:49.228Z,2.67
2022-08-27T18:13:18.070Z,2.70
2022-08-27T18:15:46.602Z,2.83
2022-08-27T18:18:15.715Z,2.63
2022-08-27T18:20:44.011Z,2.37
2022-08-27T18:23:13.324Z,2.27
2022-08-27T18:25:45.203Z,1.97
2022-08-27T18:28:14.857Z,2.20
2022-08-27T18:30:45.481Z,1.60
2022-08-27T18:33:14.503Z,2.00
2022-08-27T18:35:43.532Z,2.30
2022-08-27T18:38:11.818Z,2.67
2022-08-27T18:40:46.314Z,2.20
2022-08-27T18:43:16.191Z,2.73
2022-08-27T18:45:44.627Z,2.77
2022-08-27T18:48:16.073Z,1.90
2022-08-27T18:50:47.008Z,2.10
2022-08-27T18:53:17.633Z,1.67
2022-08-27T18:55:47.470Z,1.50
2022-08-27T18:58:15.727Z,1.57
2022-08-27T19:00:48.466Z,2.10
2022-08-27T19:03:22.832Z,2.17
2022-08-27T19:05:51.765Z,1.87
2022-08-27T19:08:23.554Z,1.40
2022-08-27T19:10:53.356Z,1.83
2022-08-27T19:13:21.505Z,1.80
2022-08-27T19:15:53.727Z,1.40
2022-08-27T19:18:24.025Z,1.47
2022-08-27T19:20:52.243Z,1.10
2022-08-27T19:23:22.256Z,2.00
2022-08-27T19:25:53.771Z,1.60
2022-08-27T19:28:40.943Z,1.80
2022-08-27T19:31:09.818Z,1.57
2022-08-27T19:33:38.760Z,1.47
2022-08-27T19:36:13.700Z,1.87
2022-08-27T19:38:43.722Z,1.60
2022-08-27T19:41:13.956Z,1.40
2022-08-27T19:43:43.848Z,1.77
2022-08-27T19:46:18.126Z,1.93
2022-08-27T19:48:47.102Z,2.20
2022-08-27T19:51:15.870Z,1.60
2022-08-27T19:53:44.395Z,1.60
2022-08-27T19:56:15.240Z,1.67
2022-08-27T19:58:44.404Z,1.80
2022-08-27T20:01:13.522Z,1.70
2022-08-27T20:03:42.164Z,2.00
2022-08-27T20:06:12.179Z,1.90
2022-08-27T20:08:40.999Z,1.53
2022-08-27T20:11:09.411Z,2.40
2022-08-27T20:13:39.887Z,2.70
2022-08-27T20:16:19.220Z,2.70
2022-08-27T20:18:47.583Z,2.17
2022-08-27T20:21:15.921Z,2.30
2022-08-27T20:23:44.269Z,1.40
2022-08-27T20:26:12.622Z,1.77
2022-08-27T20:28:43.106Z,1.50
2022-08-27T20:31:11.703Z,1.80
2022-08-27T20:33:41.359Z,1.83
2022-08-27T20:36:10.132Z,1.87
2022-08-27T20:38:38.499Z,1.23
2022-08-27T20:41:08.149Z,1.67
2022-08-27T20:43:37.048Z,2.10
2022-08-27T20:46:07.009Z,2.17
2022-08-27T20:48:38.588Z,2.07
2022-08-27T20:51:07.077Z,1.67
2022-08-27T20:53:35.314Z,1.50
2022-08-27T20:56:04.607Z,1.70
2022-08-27T20:58:50.348Z,2.40
2022-08-27T21:01:22.136Z,2.83
2022-08-27T21:03:51.729Z,1.70
2022-08-27T21:06:23.845Z,1.97
2022-08-27T21:08:54.949Z,1.50
2022-08-27T21:11:23.255Z,1.60
2022-08-27T21:13:56.403Z,1.30
2022-08-27T21:16:27.220Z,1.80
2022-08-27T21:18:55.843Z,1.40
2022-08-27T21:21:24.614Z,1.77
2022-08-27T21:23:52.887Z,2.20
2022-08-27T21:26:23.089Z,1.57
2022-08-27T21:28:55.681Z,1.40
2022-08-27T21:31:26.103Z,4.07
2022-08-27T21:33:54.698Z,3.47
2022-08-27T21:36:22.914Z,5.20
2022-08-27T21:38:51.199Z,2.83
2022-08-27T21:41:19.625Z,2.70
2022-08-27T21:43:48.254Z,1.37
2022-08-27T21:46:16.510Z,1.80
2022-08-27T21:48:46.605Z,2.20
2022-08-27T21:51:24.557Z,1.87
2022-08-27T21:53:54.500Z,1.80
2022-08-27T21:56:22.784Z,2.07
2022-08-27T21:58:51.002Z,1.67
2022-08-27T22:01:21.258Z,1.20
2022-08-27T22:03:51.696Z,1.50
2022-08-27T22:06:20.987Z,1.13
2022-08-27T22:08:49.407Z,1.40
2022-08-27T22:11:23.329Z,1.10
2022-08-27T22:13:52.382Z,1.00
2022-08-27T22:16:21.232Z,1.80
2022-08-27T22:18:50.945Z,1.80
2022-08-27T22:21:23.197Z,1.93
2022-08-27T22:23:52.465Z,2.23
2022-08-27T22:26:21.184Z,1.63
2022-08-27T22:28:50.113Z,1.60
2022-08-27T22:31:18.442Z,1.53
2022-08-27T22:33:47.197Z,1.37
2022-08-27T22:36:17.111Z,1.30
2022-08-27T22:38:45.284Z,1.50
2022-08-27T22:41:18.305Z,1.20
2022-08-27T22:43:46.991Z,1.37
2022-08-27T22:46:15.315Z,1.10
2022-08-27T22:48:43.645Z,1.20
2022-08-27T22:51:12.518Z,1.30
2022-08-27T22:53:42.464Z,1.10
2022-08-27T22:56:10.722Z,1.03
2022-08-27T22:58:38.999Z,1.40
2022-08-27T23:01:07.804Z,1.10
2022-08-27T23:03:36.072Z,1.27
2022-08-27T23:06:04.683Z,0.90
2022-08-27T23:08:32.909Z,1.07
2022-08-27T23:11:03.210Z,1.03
2022-08-27T23:13:32.374Z,0.93
2022-08-27T23:16:01.011Z,1.10
2022-08-27T23:18:29.731Z,1.10
2022-08-27T23:20:58.011Z,1.00
2022-08-27T23:23:29.843Z,1.23
2022-08-27T23:26:24.820Z,1.03
2022-08-27T23:28:54.984Z,1.00
2022-08-27T23:31:23.456Z,0.80
2022-08-27T23:33:53.695Z,1.00
2022-08-27T23:36:22.496Z,0.90
2022-08-27T23:38:51.029Z,1.00
2022-08-27T23:41:19.645Z,1.10
2022-08-27T23:43:48.007Z,0.80
2022-08-27T23:46:18.060Z,1.00
2022-08-27T23:48:46.293Z,1.10
2022-08-27T23:51:15.920Z,1.10
2022-08-27T23:53:44.095Z,0.77
2022-08-27T23:56:12.613Z,0.80
2022-08-27T23:58:40.799Z,0.80
